Time;durP1;ratioP1;P1;durP2;ratioP2;P2;SDS_P1;SDS_P2;PMS_P1;PMS_P2;Temp;Humidity;BMP_temperature;BMP_pressure;BME280_temperature;BME280_humidity;BME280_pressure;Samples;Min_cycle;Max_cycle;Signal;HPM_P1;HPM_P2
2021/12/11 00:03:13;;;;;;;119.70;41.27;;;-3.50;99.90;;;;;;8366264;28;20247;-68
2021/12/11 00:07:17;;;;;;;122.20;44.97;;;-3.50;99.90;;;;;;8364891;28;20215;-67
2021/12/11 00:11:32;;;;;;;76.93;33.87;;;-3.60;99.90;;;;;;8361692;28;20238;-67
2021/12/11 00:15:39;;;;;;;79.67;32.40;;;-3.70;99.90;;;;;;8358519;28;20247;-68
2021/12/11 00:19:40;;;;;;;73.67;29.23;;;-3.80;99.90;;;;;;8388269;28;20220;-67
2021/12/11 00:23:45;;;;;;;63.20;27.67;;;-3.90;99.90;;;;;;8422006;28;20208;-68
2021/12/11 00:27:49;;;;;;;64.83;27.27;;;-4.00;99.90;;;;;;8397685;28;20212;-69
2021/12/11 00:31:54;;;;;;;52.17;22.57;;;-4.00;99.90;;;;;;8395644;28;20257;-68
2021/12/11 00:35:55;;;;;;;47.87;22.90;;;-4.10;99.90;;;;;;8405320;28;20180;-70
2021/12/11 00:40:10;;;;;;;48.33;21.27;;;-4.20;99.90;;;;;;8404483;28;20180;-67
2021/12/11 00:44:11;;;;;;;50.40;23.03;;;-4.20;99.90;;;;;;8372719;28;20200;-67
2021/12/11 00:48:18;;;;;;;63.17;25.93;;;-4.30;99.90;;;;;;8368505;28;20209;-67
2021/12/11 00:52:29;;;;;;;61.63;26.43;;;-4.30;99.90;;;;;;8371275;28;20189;-68
2021/12/11 00:56:36;;;;;;;63.30;26.77;;;-4.30;99.90;;;;;;8368764;28;20196;-67
2021/12/11 01:00:44;;;;;;;55.07;26.13;;;-4.30;99.90;;;;;;8401187;28;20204;-68
2021/12/11 01:04:45;;;;;;;63.77;24.23;;;-4.30;99.90;;;;;;8374035;28;20188;-68
2021/12/11 01:08:55;;;;;;;52.57;23.07;;;-4.40;99.90;;;;;;8379506;28;20208;-69
2021/12/11 01:13:02;;;;;;;50.13;22.93;;;-4.40;99.90;;;;;;8369372;28;20283;-68
2021/12/11 01:17:14;;;;;;;49.97;23.37;;;-4.50;99.90;;;;;;8340507;28;20266;-68
2021/12/11 01:25:36;;;;;;;65.20;30.00;;;-4.40;99.90;;;;;;8391971;28;20218;-69
2021/12/11 01:29:38;;;;;;;65.37;25.63;;;-4.40;99.90;;;;;;8395454;28;20180;-68
2021/12/11 01:33:40;;;;;;;61.37;26.50;;;-4.50;99.90;;;;;;8393336;28;20185;-69
2021/12/11 01:37:41;;;;;;;47.10;22.63;;;-4.60;99.90;;;;;;8386512;28;20193;-68
2021/12/11 01:41:46;;;;;;;40.47;20.50;;;-4.70;99.90;;;;;;8367623;28;20196;-70
2021/12/11 01:45:49;;;;;;;37.33;19.10;;;-4.80;99.90;;;;;;8367836;28;20315;-69
2021/12/11 01:49:55;;;;;;;41.40;17.20;;;-4.90;99.90;;;;;;8383258;28;20188;-68
2021/12/11 01:54:22;;;;;;;32.87;16.03;;;-5.00;99.90;;;;;;8381072;28;20193;-69
2021/12/11 01:58:36;;;;;;;30.93;15.17;;;-5.00;99.90;;;;;;8360831;28;20185;-68
2021/12/11 02:02:43;;;;;;;35.13;16.13;;;-5.00;99.90;;;;;;8386772;28;20244;-70
2021/12/11 02:06:47;;;;;;;35.57;16.20;;;-4.90;99.90;;;;;;8367483;28;20209;-68
2021/12/11 02:10:53;;;;;;;27.30;13.67;;;-4.80;99.90;;;;;;8376556;28;20192;-67
2021/12/11 02:14:56;;;;;;;30.17;16.10;;;-4.80;99.90;;;;;;8383937;28;20193;-69
2021/12/11 02:19:06;;;;;;;34.17;17.03;;;-4.70;99.90;;;;;;8383976;28;20195;-68
2021/12/11 02:23:08;;;;;;;33.60;16.87;;;-4.60;99.90;;;;;;8377390;28;20208;-68
2021/12/11 02:27:13;;;;;;;33.83;15.40;;;-4.50;99.90;;;;;;8387973;28;20225;-68
2021/12/11 02:31:35;;;;;;;34.77;19.13;;;-4.30;99.90;;;;;;8415099;28;20180;-68
2021/12/11 02:35:51;;;;;;;35.43;17.43;;;-4.10;99.90;;;;;;8356461;28;20238;-68
2021/12/11 02:39:57;;;;;;;40.67;20.03;;;-4.00;99.90;;;;;;8365586;28;20176;-69
2021/12/11 02:44:21;;;;;;;39.93;19.60;;;-3.90;99.90;;;;;;8352701;28;20196;-68
2021/12/11 02:48:36;;;;;;;35.37;17.70;;;-3.90;99.90;;;;;;8370391;28;20212;-68
2021/12/11 02:52:43;;;;;;;36.23;18.07;;;-3.80;99.90;;;;;;8395170;28;20239;-68
2021/12/11 02:56:51;;;;;;;32.47;16.27;;;-3.70;99.90;;;;;;8381689;28;20182;-68
2021/12/11 03:01:01;;;;;;;27.47;15.60;;;-3.60;99.90;;;;;;8365358;28;20192;-68
2021/12/11 03:05:10;;;;;;;29.13;15.30;;;-3.50;99.90;;;;;;8363992;28;20271;-69
2021/12/11 03:09:16;;;;;;;31.73;15.97;;;-3.40;99.90;;;;;;8384365;28;20226;-68
2021/12/11 03:13:17;;;;;;;34.43;15.87;;;-3.30;99.90;;;;;;8384601;28;21354;-68
2021/12/11 03:17:21;;;;;;;48.43;19.93;;;-3.30;99.90;;;;;;8365652;28;20180;-67
2021/12/11 03:21:22;;;;;;;54.10;22.10;;;-3.20;99.90;;;;;;8397630;28;20176;-68
2021/12/11 03:25:27;;;;;;;37.47;18.73;;;-3.10;99.90;;;;;;8395644;28;20307;-67
2021/12/11 03:29:29;;;;;;;40.90;19.17;;;-3.10;99.90;;;;;;8411392;28;20255;-68
2021/12/11 03:33:41;;;;;;;45.57;20.87;;;-3.00;99.90;;;;;;8395031;28;20274;-69
2021/12/11 03:37:43;;;;;;;40.57;17.97;;;-2.90;99.90;;;;;;8396731;28;20199;-68
2021/12/11 03:41:46;;;;;;;35.30;18.10;;;-2.90;99.90;;;;;;8370777;28;20229;-68
2021/12/11 03:45:50;;;;;;;35.63;17.77;;;-2.90;99.90;;;;;;8364433;28;20209;-68
2021/12/11 03:49:51;;;;;;;36.10;16.63;;;-2.80;99.90;;;;;;8385811;28;20181;-68
2021/12/11 03:53:53;;;;;;;32.03;16.73;;;-2.80;99.90;;;;;;8381749;28;20213;-69
2021/12/11 03:57:58;;;;;;;32.37;17.87;;;-2.80;99.90;;;;;;8404347;28;20206;-69
2021/12/11 04:02:06;;;;;;;33.80;19.70;;;-2.70;99.90;;;;;;8362657;28;20193;-67
2021/12/11 04:06:09;;;;;;;55.77;25.13;;;-2.70;99.90;;;;;;8384839;28;20213;-67
2021/12/11 04:10:15;;;;;;;50.73;25.03;;;-2.60;99.90;;;;;;8365772;28;20191;-67
2021/12/11 04:14:23;;;;;;;43.70;22.20;;;-2.50;99.90;;;;;;8369838;28;20273;-67
2021/12/11 04:18:24;;;;;;;39.90;19.77;;;-2.50;99.90;;;;;;8376155;28;20193;-67
2021/12/11 04:22:26;;;;;;;39.27;20.03;;;-2.50;99.90;;;;;;8420841;28;20200;-67
2021/12/11 04:26:28;;;;;;;40.20;21.20;;;-2.50;99.90;;;;;;8420334;28;20213;-68
2021/12/11 04:30:29;;;;;;;51.20;23.40;;;-2.50;99.90;;;;;;8398467;28;20184;-68
2021/12/11 04:34:33;;;;;;;55.67;26.27;;;-2.40;99.90;;;;;;8376694;28;20168;-69
2021/12/11 04:38:34;;;;;;;54.57;25.60;;;-2.40;99.90;;;;;;8402852;28;20180;-69
2021/12/11 04:46:57;;;;;;;49.67;24.17;;;-2.40;99.90;;;;;;8387811;28;20321;-68
2021/12/11 04:51:18;;;;;;;46.53;23.03;;;-2.30;99.90;;;;;;8402618;28;20186;-69
2021/12/11 04:59:52;;;;;;;61.23;29.07;;;-2.20;99.90;;;;;;8397508;28;20181;-68
2021/12/11 05:12:32;;;;;;;59.53;29.57;;;-2.10;99.90;;;;;;8373627;28;20244;-67
2021/12/11 05:16:33;;;;;;;51.60;27.30;;;-2.10;99.90;;;;;;8368543;28;20481;-69
2021/12/11 05:20:35;;;;;;;58.60;28.30;;;-2.00;99.90;;;;;;8381948;28;20641;-70
2021/12/11 05:24:39;;;;;;;56.70;27.00;;;-2.00;99.90;;;;;;8395984;28;20234;-68
2021/12/11 05:28:41;;;;;;;53.97;26.93;;;-2.00;99.90;;;;;;8394023;28;20200;-69
2021/12/11 05:32:42;;;;;;;53.00;27.27;;;-2.00;99.90;;;;;;8402968;28;20179;-70
2021/12/11 05:36:43;;;;;;;49.70;26.67;;;-1.90;99.90;;;;;;8367377;28;20182;-67
2021/12/11 05:40:49;;;;;;;56.40;24.87;;;-1.90;99.90;;;;;;8365314;28;20424;-68
2021/12/11 05:44:50;;;;;;;43.13;23.13;;;-1.90;99.90;;;;;;8366010;28;20199;-69
2021/12/11 05:48:52;;;;;;;47.20;23.87;;;-1.90;99.90;;;;;;8362313;28;20216;-67
2021/12/11 05:52:54;;;;;;;43.73;21.57;;;-1.80;99.90;;;;;;8417893;28;20185;-68
2021/12/11 05:57:00;;;;;;;37.10;21.60;;;-1.80;99.90;;;;;;8393679;28;20243;-68
2021/12/11 06:01:03;;;;;;;40.90;21.13;;;-1.80;99.90;;;;;;8372201;28;20211;-67
2021/12/11 06:05:05;;;;;;;41.60;20.43;;;-1.80;99.90;;;;;;8366587;28;20192;-68
2021/12/11 06:09:09;;;;;;;55.77;25.90;;;-1.70;99.90;;;;;;8371816;28;20299;-69
2021/12/11 06:13:10;;;;;;;50.80;26.73;;;-1.80;99.90;;;;;;8360934;28;20178;-69
2021/12/11 06:17:15;;;;;;;55.13;27.00;;;-1.80;99.90;;;;;;8364932;28;20237;-68
2021/12/11 06:21:17;;;;;;;59.90;26.50;;;-1.80;99.90;;;;;;8381758;28;20188;-67
2021/12/11 06:25:25;;;;;;;47.93;26.50;;;-1.80;99.90;;;;;;8399423;28;20202;-68
2021/12/11 06:29:27;;;;;;;50.47;26.30;;;-1.70;99.90;;;;;;8410801;28;20254;-68
2021/12/11 06:33:29;;;;;;;44.50;23.90;;;-1.70;99.90;;;;;;8418111;28;20177;-69
2021/12/11 06:37:30;;;;;;;44.13;23.50;;;-1.70;99.90;;;;;;8399193;28;20265;-68
2021/12/11 06:41:35;;;;;;;41.37;22.70;;;-1.60;99.90;;;;;;8385212;28;20186;-69
2021/12/11 06:45:37;;;;;;;42.37;21.80;;;-1.60;99.90;;;;;;8365686;28;20398;-68
2021/12/11 06:49:39;;;;;;;44.70;22.67;;;-1.50;99.90;;;;;;8386096;28;20262;-68
2021/12/11 06:53:46;;;;;;;45.03;19.80;;;-1.50;99.90;;;;;;8408122;28;20219;-68
2021/12/11 06:57:48;;;;;;;40.73;20.83;;;-1.50;99.90;;;;;;8403609;28;20233;-68
2021/12/11 07:01:50;;;;;;;41.30;21.10;;;-1.40;99.90;;;;;;8392542;28;20184;-69
2021/12/11 07:05:51;;;;;;;45.57;24.00;;;-1.40;99.90;;;;;;8379621;28;20354;-70
2021/12/11 07:09:53;;;;;;;45.20;25.00;;;-1.30;99.90;;;;;;8370910;28;20193;-70
2021/12/11 07:13:54;;;;;;;42.70;23.13;;;-1.30;99.90;;;;;;8369111;28;20195;-72
2021/12/11 07:17:56;;;;;;;47.33;24.77;;;-1.20;99.90;;;;;;8389630;28;20223;-70
2021/12/11 07:21:57;;;;;;;40.13;21.30;;;-1.10;99.90;;;;;;8362037;28;20232;-71
2021/12/11 07:26:03;;;;;;;37.93;21.40;;;-1.10;99.90;;;;;;8355237;28;20236;-70
2021/12/11 07:30:05;;;;;;;44.97;22.87;;;-1.00;99.90;;;;;;8389740;28;20190;-70
2021/12/11 07:34:06;;;;;;;41.07;23.87;;;-1.00;99.90;;;;;;8380170;28;20184;-71
2021/12/11 07:38:08;;;;;;;42.03;24.00;;;-0.90;99.90;;;;;;8405387;28;20195;-71
2021/12/11 07:42:10;;;;;;;50.30;28.13;;;-0.90;99.90;;;;;;8403694;28;20185;-70
2021/12/11 07:46:17;;;;;;;55.13;29.33;;;-0.80;99.90;;;;;;8372323;28;20273;-71
2021/12/11 07:50:19;;;;;;;55.07;28.03;;;-1.00;99.90;;;;;;8393126;28;20180;-71
2021/12/11 07:54:21;;;;;;;49.17;26.43;;;-1.10;99.90;;;;;;8400829;28;20188;-70
2021/12/11 07:58:22;;;;;;;52.43;28.53;;;-1.20;99.90;;;;;;8379858;28;20197;-71
2021/12/11 08:02:23;;;;;;;42.50;23.20;;;-1.20;99.90;;;;;;8371895;28;20262;-70
2021/12/11 08:06:27;;;;;;;42.60;22.73;;;-1.20;99.90;;;;;;8369083;28;20213;-70
2021/12/11 08:10:34;;;;;;;41.57;21.43;;;-1.00;99.90;;;;;;8369885;28;20177;-69
2021/12/11 08:14:35;;;;;;;46.30;24.43;;;-0.90;99.90;;;;;;8386333;28;20485;-70
2021/12/11 08:18:37;;;;;;;37.03;21.13;;;-0.80;99.90;;;;;;8384295;28;20185;-71
2021/12/11 08:22:38;;;;;;;36.83;20.90;;;-0.70;99.90;;;;;;8396076;28;20311;-70
2021/12/11 08:26:41;;;;;;;73.50;32.80;;;-0.60;99.90;;;;;;8415099;28;20213;-70
2021/12/11 08:30:45;;;;;;;60.57;28.87;;;-0.60;99.90;;;;;;8341001;28;20527;-71
2021/12/11 08:34:46;;;;;;;50.10;26.00;;;-0.60;99.90;;;;;;8395358;28;20176;-71
2021/12/11 08:38:47;;;;;;;47.73;25.57;;;-0.40;99.90;;;;;;8403633;28;20510;-69
2021/12/11 08:42:49;;;;;;;46.30;24.97;;;-0.40;99.90;;;;;;8381778;28;20205;-71
2021/12/11 08:46:57;;;;;;;52.17;25.97;;;-0.20;99.90;;;;;;8369745;28;20208;-71
2021/12/11 08:51:07;;;;;;;51.10;26.70;;;-0.10;99.90;;;;;;8371706;28;20269;-72
2021/12/11 08:55:15;;;;;;;48.20;26.27;;;0.10;99.90;;;;;;8387895;28;20185;-72
2021/12/11 08:59:19;;;;;;;48.63;25.20;;;0.20;99.90;;;;;;8372423;28;20188;-73
2021/12/11 09:03:31;;;;;;;43.50;23.50;;;0.40;99.90;;;;;;8372826;28;20249;-71
2021/12/11 09:07:43;;;;;;;39.13;23.30;;;0.60;99.90;;;;;;8388675;28;20213;-71
2021/12/11 09:11:52;;;;;;;52.80;26.73;;;0.70;99.90;;;;;;8369598;28;20289;-72
2021/12/11 09:16:00;;;;;;;43.10;24.83;;;0.70;99.90;;;;;;8369015;28;20181;-72
2021/12/11 09:20:36;;;;;;;48.30;26.17;;;0.80;99.90;;;;;;8379234;28;20297;-73
2021/12/11 09:24:57;;;;;;;52.30;26.97;;;0.70;99.90;;;;;;8358998;28;20216;-72
2021/12/11 09:29:17;;;;;;;43.17;23.93;;;0.90;99.90;;;;;;8379982;28;20352;-73
2021/12/11 09:33:28;;;;;;;47.83;25.40;;;1.10;99.90;;;;;;8378380;28;20208;-73
2021/12/11 09:37:31;;;;;;;39.23;23.20;;;1.30;99.90;;;;;;8360223;28;20196;-74
2021/12/11 09:41:33;;;;;;;42.97;23.43;;;1.40;99.90;;;;;;8387038;28;20189;-73
2021/12/11 09:45:42;;;;;;;36.67;21.13;;;1.50;99.90;;;;;;8368434;28;20216;-72
2021/12/11 09:49:51;;;;;;;41.13;21.70;;;1.70;99.90;;;;;;8392251;28;20189;-72
2021/12/11 09:53:55;;;;;;;39.30;25.83;;;1.90;99.90;;;;;;8400235;28;20185;-74
2021/12/11 09:58:04;;;;;;;39.37;21.97;;;2.10;99.90;;;;;;8382639;28;20193;-73
2021/12/11 10:02:27;;;;;;;36.53;21.27;;;1.90;99.90;;;;;;8360914;28;20188;-72
2021/12/11 10:06:43;;;;;;;39.13;22.47;;;1.80;99.90;;;;;;8373627;28;20204;-73
2021/12/11 10:10:44;;;;;;;38.60;20.87;;;1.80;99.90;;;;;;8360455;28;20177;-72
2021/12/11 10:14:51;;;;;;;35.00;20.73;;;1.80;99.90;;;;;;8357538;28;20188;-73
2021/12/11 10:18:53;;;;;;;35.37;20.00;;;1.70;99.90;;;;;;8383931;28;20188;-74
2021/12/11 10:22:56;;;;;;;37.60;19.50;;;1.60;99.90;;;;;;8418929;28;20204;-74
2021/12/11 10:26:59;;;;;;;36.63;19.90;;;1.40;99.90;;;;;;8390750;28;20273;-74
2021/12/11 10:31:08;;;;;;;38.37;21.70;;;1.50;99.90;;;;;;8372947;28;20196;-72
2021/12/11 10:35:16;;;;;;;34.43;18.13;;;1.70;99.90;;;;;;8377330;28;20275;-72
2021/12/11 10:39:17;;;;;;;34.67;19.27;;;1.70;99.90;;;;;;8402329;28;20181;-73
2021/12/11 10:43:28;;;;;;;34.93;18.47;;;1.80;99.90;;;;;;8377381;28;20223;-71
2021/12/11 10:47:40;;;;;;;33.50;17.57;;;1.80;99.90;;;;;;8369289;28;20234;-72
2021/12/11 10:51:54;;;;;;;33.17;18.53;;;1.80;99.90;;;;;;8392498;28;20193;-72
2021/12/11 10:55:57;;;;;;;30.83;19.67;;;1.90;99.90;;;;;;8350987;28;20198;-72
2021/12/11 11:00:00;;;;;;;36.23;20.47;;;2.10;99.90;;;;;;8359494;28;20197;-72
2021/12/11 11:04:07;;;;;;;38.43;19.03;;;2.20;99.90;;;;;;8362120;28;20214;-72
2021/12/11 11:08:09;;;;;;;28.67;16.77;;;2.30;99.90;;;;;;8372390;28;20220;-70
2021/12/11 11:12:16;;;;;;;30.03;16.83;;;2.40;99.90;;;;;;8350611;28;20207;-71
2021/12/11 11:16:19;;;;;;;28.83;16.27;;;2.40;99.90;;;;;;8360163;28;20192;-71
2021/12/11 11:20:38;;;;;;;30.07;16.53;;;2.40;99.90;;;;;;8377693;28;20185;-71
2021/12/11 11:24:46;;;;;;;36.03;20.03;;;2.20;99.90;;;;;;8373104;28;20209;-70
2021/12/11 11:28:48;;;;;;;27.60;16.10;;;2.10;99.90;;;;;;8364563;28;20247;-70
2021/12/11 11:32:49;;;;;;;31.63;19.10;;;2.20;99.90;;;;;;8382511;28;20270;-70
2021/12/11 11:36:57;;;;;;;30.47;18.80;;;2.20;99.90;;;;;;8382784;28;20181;-71
2021/12/11 11:41:06;;;;;;;31.70;16.77;;;2.20;99.90;;;;;;8373376;28;20185;-71
2021/12/11 11:45:09;;;;;;;32.30;18.20;;;2.20;99.90;;;;;;8372861;28;20201;-71
2021/12/11 11:49:13;;;;;;;30.70;17.10;;;2.20;99.90;;;;;;8402021;28;20220;-71
2021/12/11 11:53:16;;;;;;;29.13;17.03;;;2.30;99.90;;;;;;8398400;28;20185;-71
2021/12/11 11:57:23;;;;;;;27.50;15.83;;;2.30;99.90;;;;;;8407203;28;20181;-72
2021/12/11 12:01:37;;;;;;;29.33;17.10;;;2.20;99.90;;;;;;8407970;28;20191;-71
2021/12/11 12:05:38;;;;;;;37.77;22.70;;;2.20;99.90;;;;;;8383432;28;20251;-72
2021/12/11 12:09:44;;;;;;;80.07;36.53;;;2.20;99.90;;;;;;8379784;28;20177;-71
2021/12/11 12:13:45;;;;;;;57.17;34.43;;;2.20;99.90;;;;;;8358805;28;20258;-72
2021/12/11 12:17:46;;;;;;;30.17;17.93;;;2.30;99.90;;;;;;8393123;28;20246;-71
2021/12/11 12:21:50;;;;;;;32.63;18.93;;;2.30;99.90;;;;;;8388326;28;20196;-72
2021/12/11 12:25:53;;;;;;;32.93;20.83;;;2.30;99.90;;;;;;8401091;28;20247;-74
2021/12/11 12:29:58;;;;;;;29.43;16.83;;;2.30;99.90;;;;;;8403123;28;20287;-71
2021/12/11 12:34:00;;;;;;;29.50;17.07;;;2.30;99.90;;;;;;8377917;28;20181;-73
2021/12/11 12:38:02;;;;;;;33.90;21.27;;;2.30;99.90;;;;;;8421813;28;20271;-72
2021/12/11 12:42:31;;;;;;;33.10;20.67;;;2.30;99.90;;;;;;8387528;28;20189;-73
2021/12/11 12:46:36;;;;;;;31.20;19.67;;;2.30;99.90;;;;;;8389334;28;20205;-72
2021/12/11 12:50:45;;;;;;;31.83;18.57;;;2.20;99.90;;;;;;8382416;28;20177;-72
2021/12/11 12:54:48;;;;;;;27.27;16.23;;;2.20;99.90;;;;;;8391177;28;20179;-72
2021/12/11 12:59:14;;;;;;;26.03;16.23;;;2.20;99.90;;;;;;8384921;28;20198;-72
2021/12/11 13:03:22;;;;;;;25.33;14.80;;;2.20;99.90;;;;;;8386601;28;20185;-73
2021/12/11 13:07:23;;;;;;;26.33;14.47;;;2.10;99.90;;;;;;8366166;28;20240;-71
2021/12/11 13:11:30;;;;;;;22.53;13.57;;;2.10;99.90;;;;;;8362671;28;20631;-71
2021/12/11 13:15:43;;;;;;;23.83;15.30;;;2.10;99.90;;;;;;8366350;28;20193;-71
2021/12/11 13:19:51;;;;;;;20.43;13.50;;;2.00;99.90;;;;;;8409132;28;20238;-71
2021/12/11 13:23:55;;;;;;;23.40;14.00;;;2.00;99.90;;;;;;8378870;28;20197;-71
2021/12/11 13:28:00;;;;;;;21.90;13.30;;;1.90;99.90;;;;;;8389609;28;20533;-71
2021/12/11 13:32:11;;;;;;;18.93;12.03;;;1.90;99.90;;;;;;8391090;28;20182;-71
2021/12/11 13:36:13;;;;;;;20.37;12.37;;;1.90;99.90;;;;;;8405777;28;20271;-70
2021/12/11 13:40:17;;;;;;;21.87;12.10;;;2.00;99.90;;;;;;8418699;28;20189;-71
2021/12/11 13:44:20;;;;;;;22.23;12.90;;;1.90;99.90;;;;;;8367044;28;20212;-72
2021/12/11 13:48:22;;;;;;;22.33;13.70;;;1.80;99.90;;;;;;8380366;28;20204;-70
2021/12/11 13:52:23;;;;;;;23.20;14.67;;;1.90;99.90;;;;;;8400665;28;20196;-71
2021/12/11 13:56:31;;;;;;;25.77;14.33;;;1.80;99.90;;;;;;8417209;28;20181;-72
2021/12/11 14:00:40;;;;;;;22.67;13.70;;;1.70;99.90;;;;;;8394253;28;20411;-72
2021/12/11 14:04:42;;;;;;;22.93;13.27;;;1.60;99.90;;;;;;8372379;28;20228;-71
2021/12/11 14:08:43;;;;;;;19.87;12.20;;;1.50;99.90;;;;;;8360304;28;20261;-71
2021/12/11 14:12:45;;;;;;;25.17;15.27;;;1.30;99.90;;;;;;8364862;28;20209;-72
2021/12/11 14:16:47;;;;;;;22.93;14.87;;;1.20;99.90;;;;;;8366484;28;20192;-71
2021/12/11 14:20:49;;;;;;;25.00;14.70;;;1.00;99.90;;;;;;8419256;28;20462;-72
2021/12/11 14:24:51;;;;;;;21.87;14.43;;;0.80;99.90;;;;;;8384796;28;20201;-70
2021/12/11 14:28:59;;;;;;;30.47;18.23;;;0.50;99.90;;;;;;8392768;28;20208;-71
2021/12/11 14:33:01;;;;;;;26.93;16.03;;;0.30;99.90;;;;;;8352932;28;20222;-70
2021/12/11 14:37:03;;;;;;;27.77;15.47;;;0.00;99.90;;;;;;8394103;28;20183;-73
2021/12/11 14:41:05;;;;;;;26.53;15.63;;;-0.30;99.90;;;;;;8393924;28;20275;-72
2021/12/11 14:45:11;;;;;;;25.33;15.50;;;-0.50;99.90;;;;;;8367833;28;20290;-72
2021/12/11 14:49:12;;;;;;;26.10;14.60;;;-0.70;99.90;;;;;;8382481;28;20215;-71
2021/12/11 14:53:16;;;;;;;28.90;16.33;;;-0.90;99.90;;;;;;8399577;28;20271;-73
2021/12/11 14:57:19;;;;;;;26.37;15.10;;;-1.10;99.90;;;;;;8389494;28;20440;-73
2021/12/11 15:01:24;;;;;;;29.07;16.23;;;-1.20;99.90;;;;;;8370950;28;20230;-72
2021/12/11 15:05:41;;;;;;;27.93;14.83;;;-1.40;99.90;;;;;;8367803;28;20187;-72
2021/12/11 15:09:42;;;;;;;23.40;14.40;;;-1.60;99.90;;;;;;8365704;28;20198;-72
2021/12/11 15:13:46;;;;;;;29.70;16.63;;;-1.70;99.90;;;;;;8348187;28;20192;-72
2021/12/11 15:17:47;;;;;;;25.37;13.63;;;-1.90;99.90;;;;;;8356320;28;20183;-71
2021/12/11 15:21:48;;;;;;;23.33;13.50;;;-2.00;99.90;;;;;;8360466;28;20190;-69
2021/12/11 15:25:49;;;;;;;23.07;13.83;;;-2.10;99.90;;;;;;8341114;28;20281;-70
2021/12/11 15:29:50;;;;;;;25.67;14.10;;;-2.30;99.90;;;;;;8368175;28;20191;-67
2021/12/11 15:33:56;;;;;;;23.70;13.97;;;-2.50;99.90;;;;;;8349853;28;20192;-66
2021/12/11 15:37:58;;;;;;;23.10;13.30;;;-2.60;99.90;;;;;;8374476;28;20186;-70
2021/12/11 15:41:59;;;;;;;30.07;15.07;;;-2.70;99.90;;;;;;8344878;28;20185;-67
2021/12/11 15:46:05;;;;;;;31.77;15.27;;;-2.80;99.90;;;;;;8363880;28;20594;-67
2021/12/11 15:50:10;;;;;;;27.67;14.00;;;-2.90;99.90;;;;;;8358056;28;20196;-68
2021/12/11 15:54:12;;;;;;;21.70;13.07;;;-3.00;99.90;;;;;;8358847;28;20189;-69
2021/12/11 15:58:14;;;;;;;26.10;13.57;;;-3.10;99.90;;;;;;8353511;28;20193;-66
2021/12/11 16:02:18;;;;;;;25.00;13.90;;;-3.20;99.90;;;;;;8373235;28;20182;-67
2021/12/11 16:06:20;;;;;;;30.63;15.80;;;-3.20;99.90;;;;;;8355120;28;20208;-68
2021/12/11 16:10:22;;;;;;;25.63;15.83;;;-3.30;99.90;;;;;;8367307;28;20188;-68
2021/12/11 16:14:27;;;;;;;36.80;18.80;;;-3.00;99.90;;;;;;8355182;28;20216;-67
2021/12/11 16:18:28;;;;;;;33.00;17.83;;;-2.70;99.90;;;;;;8375115;28;20284;-68
2021/12/11 16:22:32;;;;;;;38.13;21.00;;;-2.30;99.90;;;;;;8377463;28;20211;-70
2021/12/11 16:26:34;;;;;;;42.20;22.13;;;-1.70;99.90;;;;;;8353950;28;20305;-69
2021/12/11 16:30:38;;;;;;;41.17;19.63;;;-1.40;99.90;;;;;;8392414;28;20193;-70
2021/12/11 16:34:42;;;;;;;44.37;22.37;;;-1.40;99.90;;;;;;8355814;28;20190;-70
2021/12/11 16:38:45;;;;;;;50.97;24.33;;;-1.40;99.90;;;;;;8366379;28;20198;-70
2021/12/11 16:43:06;;;;;;;46.37;22.03;;;-1.40;99.90;;;;;;8372588;28;20194;-71
2021/12/11 16:47:09;;;;;;;47.17;24.40;;;-1.40;99.90;;;;;;8351451;28;20214;-68
2021/12/11 16:51:14;;;;;;;50.93;25.47;;;-1.40;99.90;;;;;;8262297;28;20214;-71
2021/12/11 16:55:16;;;;;;;55.47;28.20;;;-1.20;99.90;;;;;;8310541;28;20279;-70
2021/12/11 16:59:17;;;;;;;49.43;26.27;;;-1.10;99.90;;;;;;8319493;28;20638;-69
2021/12/11 17:03:21;;;;;;;54.53;25.43;;;-1.00;99.90;;;;;;8301740;28;20186;-71
2021/12/11 17:07:22;;;;;;;49.57;25.57;;;-1.00;99.90;;;;;;8297927;28;20221;-70
2021/12/11 17:11:23;;;;;;;46.70;26.17;;;-1.10;99.90;;;;;;8302765;28;20244;-70
2021/12/11 17:15:24;;;;;;;52.90;26.83;;;-1.30;99.90;;;;;;8317425;28;20274;-71
2021/12/11 17:19:26;;;;;;;46.67;25.63;;;-1.50;99.90;;;;;;8307116;28;20201;-71
2021/12/11 17:23:27;;;;;;;49.53;25.43;;;-1.70;99.90;;;;;;8326483;28;20207;-71
2021/12/11 17:27:28;;;;;;;58.97;29.83;;;-1.90;99.90;;;;;;8302269;28;20210;-71
2021/12/11 17:31:29;;;;;;;53.43;26.60;;;-2.10;99.90;;;;;;8296158;28;20185;-71
2021/12/11 17:35:31;;;;;;;55.67;27.30;;;-2.20;99.90;;;;;;8335889;28;20189;-70
2021/12/11 17:39:34;;;;;;;72.80;44.63;;;-2.40;99.90;;;;;;8323166;28;20777;-70
2021/12/11 17:43:37;;;;;;;52.37;29.03;;;-2.50;99.90;;;;;;8311519;28;20195;-69
2021/12/11 17:47:42;;;;;;;47.93;26.67;;;-2.60;99.90;;;;;;8310938;28;20262;-70
2021/12/11 17:51:44;;;;;;;48.97;24.57;;;-2.70;99.90;;;;;;8309315;28;20215;-70
2021/12/11 17:55:48;;;;;;;56.23;26.43;;;-2.80;99.90;;;;;;8315268;28;20270;-72
2021/12/11 17:59:49;;;;;;;52.90;24.43;;;-2.70;99.90;;;;;;8305063;28;20187;-72
2021/12/11 18:04:17;;;;;;;45.57;23.27;;;-2.70;99.90;;;;;;8310256;28;20191;-71
2021/12/11 18:08:22;;;;;;;45.80;23.27;;;-2.80;99.90;;;;;;8295516;28;20218;-70
2021/12/11 18:12:36;;;;;;;48.63;24.47;;;-2.70;99.90;;;;;;8319355;28;20188;-71
2021/12/11 18:16:51;;;;;;;41.37;22.20;;;-2.70;99.90;;;;;;8305532;28;20194;-72
2021/12/11 18:21:19;;;;;;;45.50;24.37;;;-2.60;99.90;;;;;;8320046;28;20176;-71
2021/12/11 18:25:26;;;;;;;52.53;25.17;;;-2.50;99.90;;;;;;8305922;28;20234;-71
2021/12/11 18:29:31;;;;;;;51.73;25.53;;;-2.30;99.90;;;;;;8321595;28;20212;-71
2021/12/11 18:33:34;;;;;;;53.07;26.23;;;-2.20;99.90;;;;;;8299433;28;20182;-71
2021/12/11 18:37:37;;;;;;;51.43;25.73;;;-2.00;99.90;;;;;;8305625;28;20190;-72
2021/12/11 18:41:42;;;;;;;47.73;24.63;;;-1.90;99.90;;;;;;8300375;28;20277;-72
2021/12/11 18:45:46;;;;;;;54.70;25.47;;;-1.80;99.90;;;;;;8309483;28;20223;-72
2021/12/11 18:49:49;;;;;;;58.17;26.77;;;-1.70;99.90;;;;;;8313158;28;20183;-72
2021/12/11 18:53:54;;;;;;;53.17;24.83;;;-1.70;99.90;;;;;;8310175;28;20186;-69
2021/12/11 18:57:58;;;;;;;51.87;25.60;;;-1.60;99.90;;;;;;8328760;28;20188;-69
2021/12/11 19:02:22;;;;;;;45.97;24.13;;;-1.60;99.90;;;;;;8316331;28;20183;-68
2021/12/11 19:06:27;;;;;;;57.53;24.93;;;-1.60;99.90;;;;;;8292798;28;20293;-68
2021/12/11 19:10:28;;;;;;;55.23;24.83;;;-1.60;99.90;;;;;;8323837;28;20458;-70
2021/12/11 19:14:32;;;;;;;47.27;25.40;;;-1.60;99.90;;;;;;8338074;28;20189;-69
2021/12/11 19:18:37;;;;;;;48.43;24.23;;;-1.60;99.90;;;;;;8314603;28;20200;-70
2021/12/11 19:22:40;;;;;;;44.53;22.37;;;-1.60;99.90;;;;;;8322600;28;20216;-70
2021/12/11 19:26:41;;;;;;;41.17;20.60;;;-1.70;99.90;;;;;;8326375;28;20215;-70
2021/12/11 19:30:49;;;;;;;50.37;23.53;;;-1.60;99.90;;;;;;8322317;28;20269;-69
2021/12/11 19:34:51;;;;;;;40.83;20.43;;;-1.60;99.90;;;;;;8328082;28;20213;-68
2021/12/11 19:38:57;;;;;;;50.70;22.83;;;-1.60;99.90;;;;;;8311943;28;20181;-68
2021/12/11 19:43:01;;;;;;;38.40;20.33;;;-1.60;99.90;;;;;;8315447;28;20227;-69
2021/12/11 19:47:05;;;;;;;42.20;22.47;;;-1.50;99.90;;;;;;8310320;28;20207;-67
2021/12/11 19:51:14;;;;;;;52.23;27.80;;;-1.60;99.90;;;;;;8300682;28;20187;-69
2021/12/11 19:55:18;;;;;;;44.77;22.97;;;-1.70;99.90;;;;;;8305090;28;20188;-70
2021/12/11 19:59:26;;;;;;;47.90;23.47;;;-1.80;99.90;;;;;;8326182;28;20270;-70
2021/12/11 20:03:30;;;;;;;42.23;21.10;;;-1.80;99.90;;;;;;8321433;28;20276;-68
2021/12/11 20:07:32;;;;;;;45.43;22.40;;;-1.90;99.90;;;;;;8298538;28;20219;-69
2021/12/11 20:11:52;;;;;;;44.33;22.10;;;-1.90;99.90;;;;;;8308224;28;20303;-70
2021/12/11 20:16:00;;;;;;;40.50;20.47;;;-2.00;99.90;;;;;;8319734;28;20192;-69
2021/12/11 20:20:10;;;;;;;47.27;22.17;;;-2.10;99.90;;;;;;8312941;28;20252;-70
2021/12/11 20:24:13;;;;;;;43.83;23.30;;;-2.10;99.90;;;;;;8307665;28;20203;-69
2021/12/11 20:28:16;;;;;;;48.63;24.20;;;-2.10;99.90;;;;;;8291233;28;20206;-70
2021/12/11 20:32:20;;;;;;;43.40;21.40;;;-2.10;99.90;;;;;;8315190;28;20351;-67
2021/12/11 20:36:22;;;;;;;45.33;22.07;;;-2.10;99.90;;;;;;8323594;28;20190;-68
2021/12/11 20:40:49;;;;;;;45.53;21.73;;;-2.20;99.90;;;;;;8320281;28;20247;-68
2021/12/11 20:44:56;;;;;;;42.30;20.63;;;-2.30;99.90;;;;;;8302145;28;20295;-68
2021/12/11 20:48:58;;;;;;;40.40;20.50;;;-2.40;99.90;;;;;;8301649;28;20210;-70
2021/12/11 20:53:00;;;;;;;41.20;19.90;;;-2.50;99.90;;;;;;8316924;28;20297;-69
2021/12/11 20:57:01;;;;;;;42.17;20.43;;;-2.50;99.90;;;;;;8330289;28;20301;-67
2021/12/11 21:01:11;;;;;;;34.77;19.00;;;-2.50;99.90;;;;;;8305096;28;20222;-67
2021/12/11 21:05:37;;;;;;;46.50;22.97;;;-2.60;99.90;;;;;;8318766;28;20191;-68
2021/12/11 21:09:44;;;;;;;38.33;20.77;;;-2.60;99.90;;;;;;8292953;28;20249;-68
2021/12/11 21:13:48;;;;;;;42.30;19.87;;;-2.60;99.90;;;;;;8305629;28;20187;-69